Helmsdale, United Kingdom
Current Conditions -  °F | °C
As of 8:50 PM on Thursday 20 Nov 2014 (Local Time) from EGQS Reporting Station
Broken Clouds Broken Clouds  
Wind Chill: 42°   Ceiling: 5800
Heat Index: 46°   Visibility: 6mi
Dew Point: 43°   Wind: 8mph
Humidity: 87%   Direction: 110°ESE
Pressure: 30.3"   Gusts: NA
Location:  58.12°N, 3.66°W
Report Text: EGQS 202050Z 11007KT 9999 FEW040 BKN058 08/06 Q1026 BLU
Loading
Personal Weather Stations






























Interactive Weather Map New forecast layout! Learn more

10-Day Weather Forecast

Advertisements
Track Severe Weather on mobile